Wilson Lahn — 8PUO — position and weather

sailwx.info

Track history (hours):
 
Tides and Currents Weather Stations Pressure Air Temp Water Temp Dewpoint Dewpoint Depression Visibility Wind Speed Wind Dir Waves Ship Positions

Wilson Lahn

Last reported at 2016-Feb-07 16:33 UTC. Time now 2016-Feb-07 21:33 UTC.
Position N 59°07' E 009°37'.

Length 83 m; draft 3.2 m.

Type: Cargo ship. MMSI: 314259000.

Date/timePositionNaut miles runAvg speedWind from/ knotsBaromVisibWave heightAir tempDewpointWater temp
2016-Feb-07 16:33N 59°07' E 009°37'0 0.0
2016-Feb-05 23:15N 59°06' E 009°37'0 0.0
2016-Feb-05 18:21N 59°06' E 009°37'0 0.0
2016-Feb-05 17:12N 59°06' E 009°37'0 0.0
2016-Feb-05 13:30N 59°06' E 009°37'0 0.0
2016-Feb-05 12:18N 59°06' E 009°37'0 0.0
2016-Feb-05 11:15N 59°06' E 009°37'0 0.0
2016-Feb-05 10:30N 59°06' E 009°37'0 0.0
2016-Feb-05 09:33N 59°06' E 009°37'0 0.0
2016-Feb-05 07:21N 59°06' E 009°37'0 0.0
2016-Feb-05 05:24N 59°06' E 009°37'0 0.0
2016-Feb-05 03:12N 59°06' E 009°37'0 0.0
2016-Feb-05 02:24N 59°06' E 009°37'0 0.0
2016-Feb-05 01:30N 59°06' E 009°37'0 0.0
2016-Feb-05 00:27N 59°06' E 009°37'0 0.0
2016-Feb-04 23:03N 59°06' E 009°37'0 0.0
2016-Feb-04 21:30N 59°06' E 009°37'0 0.0
2016-Feb-04 20:30N 59°06' E 009°37'0 0.0
2016-Feb-04 17:28N 59°06' E 009°37'8 6.0
2016-Feb-04 16:04N 59°00' E 009°49'3 6.3
2016-Feb-04 15:33N 58°57' E 009°49'10 9.8
2016-Feb-04 14:33N 58°56' E 010°07'1111.0
2016-Feb-04 13:33N 58°59' E 010°28'1110.6
2016-Feb-04 12:33N 59°02' E 010°48'7 7.5
2016-Feb-04 11:33N 59°07' E 010°58'4 3.8
2016-Feb-04 10:33N 59°11' E 010°57'0 0.0
2016-Feb-04 09:33N 59°11' E 010°57'0 0.0
2016-Feb-04 08:33N 59°11' E 010°57'0 0.0
2016-Feb-04 07:33N 59°11' E 010°57'0 0.0
2016-Feb-04 06:30N 59°11' E 010°57'0 0.0
2016-Feb-04 05:33N 59°11' E 010°57'0 0.0
2016-Feb-04 04:33N 59°11' E 010°57'0 0.0
2016-Feb-04 03:33N 59°11' E 010°57'0 0.0
2016-Feb-04 02:30N 59°11' E 010°57'0 0.0
2016-Feb-04 01:30N 59°11' E 010°57'0 0.0
2016-Feb-04 00:33N 59°11' E 010°57'0 0.0
2016-Feb-03 23:33N 59°11' E 010°57'0 0.0
2016-Feb-03 22:30N 59°11' E 010°57'0 0.0
2016-Feb-03 21:33N 59°11' E 010°57'0 0.0
2016-Feb-03 20:30N 59°11' E 010°57'0 0.1
2016-Feb-03 19:33N 59°11' E 010°57'0 0.0
2016-Feb-03 18:30N 59°11' E 010°57'0 0.0
2016-Feb-03 17:33N 59°11' E 010°57'0 0.0
2016-Feb-03 16:33N 59°11' E 010°57'3 2.8
2016-Feb-03 15:34N 59°08' E 010°56'8 8.5
2016-Feb-03 14:33N 59°14' E 010°43'1110.9
2016-Feb-03 13:33N 59°23' E 010°33'2 2.5
2016-Feb-03 12:34N 59°25' E 010°30'0 0.0
2016-Feb-03 11:34N 59°25' E 010°30'0 0.0
2016-Feb-03 10:34N 59°25' E 010°30'0 0.0
2016-Feb-03 09:31N 59°25' E 010°30'0 0.0
2016-Feb-03 08:34N 59°25' E 010°30'0 0.0
2016-Feb-03 07:34N 59°25' E 010°30'0 0.0
2016-Feb-03 06:34N 59°25' E 010°30'0 0.0
2016-Feb-03 05:31N 59°25' E 010°30'0 0.0
2016-Feb-03 04:31N 59°25' E 010°30'0 0.0
2016-Feb-03 03:34N 59°25' E 010°30'0 0.0
2016-Feb-03 02:31N 59°25' E 010°30'0 0.0
2016-Feb-03 01:34N 59°25' E 010°30'0 0.0
2016-Feb-03 00:31N 59°25' E 010°30'0 0.0
2016-Feb-02 23:34N 59°25' E 010°30'0 0.0
2016-Feb-02 22:31N 59°25' E 010°30'0 0.0
2016-Feb-02 21:31N 59°25' E 010°30'0 0.0
2016-Feb-02 20:34N 59°25' E 010°30'0 0.0
2016-Feb-02 19:34N 59°25' E 010°30'0 0.0
2016-Feb-02 18:31N 59°25' E 010°30'0 0.0
2016-Feb-02 17:34N 59°25' E 010°30'0 0.0
2016-Feb-02 16:34N 59°25' E 010°30'6 5.9
2016-Feb-02 15:33N 59°20' E 010°36'1110.7
2016-Feb-02 14:34N 59°09' E 010°39'9 8.8
2016-Feb-02 13:33N 59°01' E 010°33'22 9.2
2016-Feb-02 11:11N 58°50' E 009°57'6 8.9
2016-Feb-02 10:32N 58°48' E 009°47'8 8.5
2016-Feb-02 09:33N 58°42' E 009°35'29 9.0
2016-Feb-02 06:20N 58°21' E 008°57'7 8.9
2016-Feb-02 05:33N 58°16' E 008°48'9 9.1
2016-Feb-02 04:33N 58°10' E 008°36'9 9.0
2016-Feb-02 03:33N 58°03' E 008°24'24610.1
2016-Feb-01 03:08N 54°19' E 005°19'610.3
2016-Feb-01 02:33N 54°14' E 005°15'1010.4
2016-Feb-01 01:33N 54°04' E 005°08'1010.5
2016-Feb-01 00:34N 53°55' E 005°02'1110.5
2016-Jan-31 23:33N 53°45' E 004°55'4611.1
2016-Jan-31 19:26N 53°03' E 004°23'1011.3
2016-Jan-31 18:30N 52°54' E 004°15'2210.6
2016-Jan-31 16:24N 52°34' E 003°58'8 9.6
2016-Jan-31 15:32N 52°26' E 003°54'9 9.3
2016-Jan-31 14:32N 52°17' E 003°53'9 9.4
2016-Jan-31 13:33N 52°08' E 003°55'10 9.8
2016-Jan-31 12:33N 51°59' E 004°04'1312.3
2016-Jan-31 11:32N 51°54' E 004°22'4 3.9
2016-Jan-31 10:33N 51°54' E 004°28'0 0.0
2016-Jan-31 09:33N 51°54' E 004°28'0 0.0
2016-Jan-31 08:33N 51°54' E 004°28'0 0.0
2016-Jan-31 07:33N 51°54' E 004°28'0 0.0
2016-Jan-31 06:33N 51°54' E 004°28'0 0.0
2016-Jan-31 05:33N 51°54' E 004°28'0 0.0
2016-Jan-31 04:33N 51°54' E 004°28'0 0.0
2016-Jan-31 03:33N 51°54' E 004°28'0 0.0
2016-Jan-31 02:33N 51°54' E 004°28'0 0.0
2016-Jan-31 01:33N 51°54' E 004°28'0 0.0
2016-Jan-31 00:33N 51°54' E 004°28'2 1.8
2016-Jan-30 23:33N 51°55' E 004°31'9 9.1
2016-Jan-30 22:34N 51°49' E 004°43'9 8.9
2016-Jan-30 21:32N 51°50' E 004°58'11 9.2
2016-Jan-30 20:18N 51°49' E 005°16'54 8.0
2016-Jan-30 13:30N 51°35' E 006°40'  
Track history (hours):
 
Tides and Currents Weather Stations Pressure Air Temp Water Temp Dewpoint Dewpoint Depression Visibility Wind Speed Wind Dir Waves Ship Positions

Wilson Lahn

Last reported at 2016-Feb-07 16:33 UTC. Time now 2016-Feb-07 21:33 UTC.
Position N 59°07' E 009°37'.

Length 83 m; draft 3.2 m.

Type: Cargo ship. MMSI: 314259000.

Date/timePositionNaut miles runAvg speedWind from/ knotsBaromVisibWave heightAir tempDewpointWater temp
2016-Feb-07 16:33N 59°07' E 009°37'0 0.0
2016-Feb-05 23:15N 59°06' E 009°37'0 0.0
2016-Feb-05 18:21N 59°06' E 009°37'0 0.0
2016-Feb-05 17:12N 59°06' E 009°37'0 0.0
2016-Feb-05 13:30N 59°06' E 009°37'0 0.0
2016-Feb-05 12:18N 59°06' E 009°37'0 0.0
2016-Feb-05 11:15N 59°06' E 009°37'0 0.0
2016-Feb-05 10:30N 59°06' E 009°37'0 0.0
2016-Feb-05 09:33N 59°06' E 009°37'0 0.0
2016-Feb-05 07:21N 59°06' E 009°37'0 0.0
2016-Feb-05 05:24N 59°06' E 009°37'0 0.0
2016-Feb-05 03:12N 59°06' E 009°37'0 0.0
2016-Feb-05 02:24N 59°06' E 009°37'0 0.0
2016-Feb-05 01:30N 59°06' E 009°37'0 0.0
2016-Feb-05 00:27N 59°06' E 009°37'0 0.0
2016-Feb-04 23:03N 59°06' E 009°37'0 0.0
2016-Feb-04 21:30N 59°06' E 009°37'0 0.0
2016-Feb-04 20:30N 59°06' E 009°37'0 0.0
2016-Feb-04 17:28N 59°06' E 009°37'8 6.0
2016-Feb-04 16:04N 59°00' E 009°49'3 6.3
2016-Feb-04 15:33N 58°57' E 009°49'10 9.8
2016-Feb-04 14:33N 58°56' E 010°07'1111.0
2016-Feb-04 13:33N 58°59' E 010°28'1110.6
2016-Feb-04 12:33N 59°02' E 010°48'7 7.5
2016-Feb-04 11:33N 59°07' E 010°58'4 3.8
2016-Feb-04 10:33N 59°11' E 010°57'0 0.0
2016-Feb-04 09:33N 59°11' E 010°57'0 0.0
2016-Feb-04 08:33N 59°11' E 010°57'0 0.0
2016-Feb-04 07:33N 59°11' E 010°57'0 0.0
2016-Feb-04 06:30N 59°11' E 010°57'0 0.0
2016-Feb-04 05:33N 59°11' E 010°57'0 0.0
2016-Feb-04 04:33N 59°11' E 010°57'0 0.0
2016-Feb-04 03:33N 59°11' E 010°57'0 0.0
2016-Feb-04 02:30N 59°11' E 010°57'0 0.0
2016-Feb-04 01:30N 59°11' E 010°57'0 0.0
2016-Feb-04 00:33N 59°11' E 010°57'0 0.0
2016-Feb-03 23:33N 59°11' E 010°57'0 0.0
2016-Feb-03 22:30N 59°11' E 010°57'0 0.0
2016-Feb-03 21:33N 59°11' E 010°57'0 0.0
2016-Feb-03 20:30N 59°11' E 010°57'0 0.1
2016-Feb-03 19:33N 59°11' E 010°57'0 0.0
2016-Feb-03 18:30N 59°11' E 010°57'0 0.0
2016-Feb-03 17:33N 59°11' E 010°57'0 0.0
2016-Feb-03 16:33N 59°11' E 010°57'3 2.8
2016-Feb-03 15:34N 59°08' E 010°56'8 8.5
2016-Feb-03 14:33N 59°14' E 010°43'1110.9
2016-Feb-03 13:33N 59°23' E 010°33'2 2.5
2016-Feb-03 12:34N 59°25' E 010°30'0 0.0
2016-Feb-03 11:34N 59°25' E 010°30'0 0.0
2016-Feb-03 10:34N 59°25' E 010°30'0 0.0
2016-Feb-03 09:31N 59°25' E 010°30'0 0.0
2016-Feb-03 08:34N 59°25' E 010°30'0 0.0
2016-Feb-03 07:34N 59°25' E 010°30'0 0.0
2016-Feb-03 06:34N 59°25' E 010°30'0 0.0
2016-Feb-03 05:31N 59°25' E 010°30'0 0.0
2016-Feb-03 04:31N 59°25' E 010°30'0 0.0
2016-Feb-03 03:34N 59°25' E 010°30'0 0.0
2016-Feb-03 02:31N 59°25' E 010°30'0 0.0
2016-Feb-03 01:34N 59°25' E 010°30'0 0.0
2016-Feb-03 00:31N 59°25' E 010°30'0 0.0
2016-Feb-02 23:34N 59°25' E 010°30'0 0.0
2016-Feb-02 22:31N 59°25' E 010°30'0 0.0
2016-Feb-02 21:31N 59°25' E 010°30'0 0.0
2016-Feb-02 20:34N 59°25' E 010°30'0 0.0
2016-Feb-02 19:34N 59°25' E 010°30'0 0.0
2016-Feb-02 18:31N 59°25' E 010°30'0 0.0
2016-Feb-02 17:34N 59°25' E 010°30'0 0.0
2016-Feb-02 16:34N 59°25' E 010°30'6 5.9
2016-Feb-02 15:33N 59°20' E 010°36'1110.7
2016-Feb-02 14:34N 59°09' E 010°39'9 8.8
2016-Feb-02 13:33N 59°01' E 010°33'22 9.2
2016-Feb-02 11:11N 58°50' E 009°57'6 8.9
2016-Feb-02 10:32N 58°48' E 009°47'8 8.5
2016-Feb-02 09:33N 58°42' E 009°35'29 9.0
2016-Feb-02 06:20N 58°21' E 008°57'7 8.9
2016-Feb-02 05:33N 58°16' E 008°48'9 9.1
2016-Feb-02 04:33N 58°10' E 008°36'9 9.0
2016-Feb-02 03:33N 58°03' E 008°24'24610.1
2016-Feb-01 03:08N 54°19' E 005°19'610.3
2016-Feb-01 02:33N 54°14' E 005°15'1010.4
2016-Feb-01 01:33N 54°04' E 005°08'1010.5
2016-Feb-01 00:34N 53°55' E 005°02'1110.5
2016-Jan-31 23:33N 53°45' E 004°55'4611.1
2016-Jan-31 19:26N 53°03' E 004°23'1011.3
2016-Jan-31 18:30N 52°54' E 004°15'2210.6
2016-Jan-31 16:24N 52°34' E 003°58'8 9.6
2016-Jan-31 15:32N 52°26' E 003°54'9 9.3
2016-Jan-31 14:32N 52°17' E 003°53'9 9.4
2016-Jan-31 13:33N 52°08' E 003°55'10 9.8
2016-Jan-31 12:33N 51°59' E 004°04'1312.3
2016-Jan-31 11:32N 51°54' E 004°22'4 3.9
2016-Jan-31 10:33N 51°54' E 004°28'0 0.0
2016-Jan-31 09:33N 51°54' E 004°28'0 0.0
2016-Jan-31 08:33N 51°54' E 004°28'0 0.0
2016-Jan-31 07:33N 51°54' E 004°28'0 0.0
2016-Jan-31 06:33N 51°54' E 004°28'0 0.0
2016-Jan-31 05:33N 51°54' E 004°28'0 0.0
2016-Jan-31 04:33N 51°54' E 004°28'0 0.0
2016-Jan-31 03:33N 51°54' E 004°28'0 0.0
2016-Jan-31 02:33N 51°54' E 004°28'0 0.0
2016-Jan-31 01:33N 51°54' E 004°28'0 0.0
2016-Jan-31 00:33N 51°54' E 004°28'2 1.8
2016-Jan-30 23:33N 51°55' E 004°31'9 9.1
2016-Jan-30 22:34N 51°49' E 004°43'9 8.9
2016-Jan-30 21:32N 51°50' E 004°58'11 9.2
2016-Jan-30 20:18N 51°49' E 005°16'54 8.0
2016-Jan-30 13:30N 51°35' E 006°40'  

Dump ship's entire track history